sensor_id;sensor_type;location;lat;lon;timestamp;P1;durP1;ratioP1;P2;durP2;ratioP2
15699;SDS011;7950;42.744;23.174;2023-04-26T00:01:13;3.53;;;2.30;;
15699;SDS011;7950;42.744;23.174;2023-04-26T00:03:43;4.07;;;2.50;;
15699;SDS011;7950;42.744;23.174;2023-04-26T00:06:12;4.33;;;2.80;;
15699;SDS011;7950;42.744;23.174;2023-04-26T00:08:41;5.07;;;2.57;;
15699;SDS011;7950;42.744;23.174;2023-04-26T00:11:10;3.13;;;2.17;;
15699;SDS011;7950;42.744;23.174;2023-04-26T00:13:38;4.43;;;2.50;;
15699;SDS011;7950;42.744;23.174;2023-04-26T00:16:13;4.43;;;2.10;;
15699;SDS011;7950;42.744;23.174;2023-04-26T00:18:43;4.20;;;2.10;;
15699;SDS011;7950;42.744;23.174;2023-04-26T00:21:12;4.60;;;2.40;;
15699;SDS011;7950;42.744;23.174;2023-04-26T00:23:41;2.57;;;2.33;;
15699;SDS011;7950;42.744;23.174;2023-04-26T00:26:09;2.90;;;2.40;;
15699;SDS011;7950;42.744;23.174;2023-04-26T00:28:38;4.50;;;2.37;;
15699;SDS011;7950;42.744;23.174;2023-04-26T00:31:07;6.10;;;2.37;;
15699;SDS011;7950;42.744;23.174;2023-04-26T00:33:42;4.00;;;2.27;;
15699;SDS011;7950;42.744;23.174;2023-04-26T00:36:11;4.03;;;2.27;;
15699;SDS011;7950;42.744;23.174;2023-04-26T00:38:42;5.73;;;2.27;;
15699;SDS011;7950;42.744;23.174;2023-04-26T00:41:11;4.23;;;2.20;;
15699;SDS011;7950;42.744;23.174;2023-04-26T00:43:40;3.37;;;2.10;;
15699;SDS011;7950;42.744;23.174;2023-04-26T00:46:08;5.53;;;2.33;;
15699;SDS011;7950;42.744;23.174;2023-04-26T00:48:39;4.63;;;2.20;;
15699;SDS011;7950;42.744;23.174;2023-04-26T00:51:08;6.87;;;2.07;;
15699;SDS011;7950;42.744;23.174;2023-04-26T00:53:37;5.10;;;2.30;;
15699;SDS011;7950;42.744;23.174;2023-04-26T00:56:08;2.97;;;2.10;;
15699;SDS011;7950;42.744;23.174;2023-04-26T00:58:37;3.90;;;2.07;;
15699;SDS011;7950;42.744;23.174;2023-04-26T01:01:06;3.63;;;2.00;;
15699;SDS011;7950;42.744;23.174;2023-04-26T01:03:35;3.77;;;2.20;;
15699;SDS011;7950;42.744;23.174;2023-04-26T01:11:55;3.83;;;2.10;;
15699;SDS011;7950;42.744;23.174;2023-04-26T01:14:26;3.23;;;2.07;;
15699;SDS011;7950;42.744;23.174;2023-04-26T01:16:55;3.73;;;2.40;;
15699;SDS011;7950;42.744;23.174;2023-04-26T01:19:24;5.17;;;2.50;;
15699;SDS011;7950;42.744;23.174;2023-04-26T01:21:54;2.63;;;2.37;;
15699;SDS011;7950;42.744;23.174;2023-04-26T01:24:24;3.13;;;2.67;;
15699;SDS011;7950;42.744;23.174;2023-04-26T01:26:52;4.40;;;2.30;;
15699;SDS011;7950;42.744;23.174;2023-04-26T01:29:21;2.90;;;2.20;;
15699;SDS011;7950;42.744;23.174;2023-04-26T01:31:50;5.47;;;2.67;;
15699;SDS011;7950;42.744;23.174;2023-04-26T01:34:18;3.87;;;2.47;;
15699;SDS011;7950;42.744;23.174;2023-04-26T01:36:47;4.03;;;2.47;;
15699;SDS011;7950;42.744;23.174;2023-04-26T01:39:15;2.97;;;2.30;;
15699;SDS011;7950;42.744;23.174;2023-04-26T01:41:45;2.90;;;2.30;;
15699;SDS011;7950;42.744;23.174;2023-04-26T01:44:14;4.00;;;2.53;;
15699;SDS011;7950;42.744;23.174;2023-04-26T01:46:43;2.57;;;2.33;;
15699;SDS011;7950;42.744;23.174;2023-04-26T01:49:11;4.10;;;2.40;;
15699;SDS011;7950;42.744;23.174;2023-04-26T01:51:40;3.70;;;2.40;;
15699;SDS011;7950;42.744;23.174;2023-04-26T01:54:08;4.70;;;2.90;;
15699;SDS011;7950;42.744;23.174;2023-04-26T01:56:37;4.00;;;2.90;;
15699;SDS011;7950;42.744;23.174;2023-04-26T01:59:07;3.63;;;2.93;;
15699;SDS011;7950;42.744;23.174;2023-04-26T02:01:35;8.03;;;3.80;;
15699;SDS011;7950;42.744;23.174;2023-04-26T02:04:04;4.37;;;3.10;;
15699;SDS011;7950;42.744;23.174;2023-04-26T02:06:32;3.50;;;3.03;;
15699;SDS011;7950;42.744;23.174;2023-04-26T02:09:01;5.20;;;3.60;;
15699;SDS011;7950;42.744;23.174;2023-04-26T02:11:30;4.80;;;3.20;;
15699;SDS011;7950;42.744;23.174;2023-04-26T02:13:58;7.10;;;4.13;;
15699;SDS011;7950;42.744;23.174;2023-04-26T02:16:29;5.27;;;4.00;;
15699;SDS011;7950;42.744;23.174;2023-04-26T02:18:58;5.13;;;3.30;;
15699;SDS011;7950;42.744;23.174;2023-04-26T02:21:28;5.27;;;3.83;;
15699;SDS011;7950;42.744;23.174;2023-04-26T02:23:56;4.17;;;3.70;;
15699;SDS011;7950;42.744;23.174;2023-04-26T02:26:25;4.50;;;3.53;;
15699;SDS011;7950;42.744;23.174;2023-04-26T02:28:54;5.50;;;4.13;;
15699;SDS011;7950;42.744;23.174;2023-04-26T02:31:22;5.57;;;4.30;;
15699;SDS011;7950;42.744;23.174;2023-04-26T02:33:52;6.57;;;3.87;;
15699;SDS011;7950;42.744;23.174;2023-04-26T02:36:21;7.47;;;4.37;;
15699;SDS011;7950;42.744;23.174;2023-04-26T02:38:50;5.70;;;4.03;;
15699;SDS011;7950;42.744;23.174;2023-04-26T02:41:19;4.97;;;4.00;;
15699;SDS011;7950;42.744;23.174;2023-04-26T02:43:48;7.50;;;4.07;;
15699;SDS011;7950;42.744;23.174;2023-04-26T02:46:23;5.23;;;4.07;;
15699;SDS011;7950;42.744;23.174;2023-04-26T02:48:53;4.83;;;3.57;;
15699;SDS011;7950;42.744;23.174;2023-04-26T02:51:22;3.60;;;3.20;;
15699;SDS011;7950;42.744;23.174;2023-04-26T02:53:50;5.93;;;3.60;;
15699;SDS011;7950;42.744;23.174;2023-04-26T02:56:19;5.23;;;3.30;;
15699;SDS011;7950;42.744;23.174;2023-04-26T02:58:47;4.83;;;3.33;;
15699;SDS011;7950;42.744;23.174;2023-04-26T03:01:16;2.70;;;2.50;;
15699;SDS011;7950;42.744;23.174;2023-04-26T03:03:45;3.00;;;2.70;;
15699;SDS011;7950;42.744;23.174;2023-04-26T03:06:14;4.20;;;3.37;;
15699;SDS011;7950;42.744;23.174;2023-04-26T03:08:43;5.10;;;3.60;;
15699;SDS011;7950;42.744;23.174;2023-04-26T03:11:11;4.00;;;3.07;;
15699;SDS011;7950;42.744;23.174;2023-04-26T03:13:40;3.10;;;2.80;;
15699;SDS011;7950;42.744;23.174;2023-04-26T03:16:08;3.00;;;2.70;;
15699;SDS011;7950;42.744;23.174;2023-04-26T03:18:37;3.27;;;2.97;;
15699;SDS011;7950;42.744;23.174;2023-04-26T03:21:06;2.97;;;2.77;;
15699;SDS011;7950;42.744;23.174;2023-04-26T03:23:36;3.27;;;2.90;;
15699;SDS011;7950;42.744;23.174;2023-04-26T03:26:04;3.00;;;2.70;;
15699;SDS011;7950;42.744;23.174;2023-04-26T03:28:33;2.73;;;2.53;;
15699;SDS011;7950;42.744;23.174;2023-04-26T03:31:01;3.20;;;2.90;;
15699;SDS011;7950;42.744;23.174;2023-04-26T03:33:30;3.80;;;2.83;;
15699;SDS011;7950;42.744;23.174;2023-04-26T03:35:59;3.37;;;2.67;;
15699;SDS011;7950;42.744;23.174;2023-04-26T03:38:27;3.77;;;3.20;;
15699;SDS011;7950;42.744;23.174;2023-04-26T03:40:57;4.13;;;3.33;;
15699;SDS011;7950;42.744;23.174;2023-04-26T03:46:20;3.90;;;3.50;;
15699;SDS011;7950;42.744;23.174;2023-04-26T03:48:49;4.07;;;3.67;;
15699;SDS011;7950;42.744;23.174;2023-04-26T03:51:18;4.03;;;3.63;;
15699;SDS011;7950;42.744;23.174;2023-04-26T03:53:46;3.63;;;3.30;;
15699;SDS011;7950;42.744;23.174;2023-04-26T03:56:16;3.93;;;3.20;;
15699;SDS011;7950;42.744;23.174;2023-04-26T03:58:45;3.40;;;3.10;;
15699;SDS011;7950;42.744;23.174;2023-04-26T04:01:13;4.70;;;3.60;;
15699;SDS011;7950;42.744;23.174;2023-04-26T04:03:42;7.13;;;6.43;;
15699;SDS011;7950;42.744;23.174;2023-04-26T04:09:02;5.83;;;4.93;;
15699;SDS011;7950;42.744;23.174;2023-04-26T04:11:32;9.27;;;6.90;;
15699;SDS011;7950;42.744;23.174;2023-04-26T04:14:00;3.53;;;3.23;;
15699;SDS011;7950;42.744;23.174;2023-04-26T04:16:29;3.43;;;3.10;;
15699;SDS011;7950;42.744;23.174;2023-04-26T04:18:57;3.80;;;3.40;;
15699;SDS011;7950;42.744;23.174;2023-04-26T04:21:26;5.33;;;4.80;;
15699;SDS011;7950;42.744;23.174;2023-04-26T04:23:54;4.43;;;4.03;;
15699;SDS011;7950;42.744;23.174;2023-04-26T04:26:23;3.63;;;3.17;;
15699;SDS011;7950;42.744;23.174;2023-04-26T04:28:54;3.63;;;2.70;;
15699;SDS011;7950;42.744;23.174;2023-04-26T04:31:23;3.60;;;3.00;;
15699;SDS011;7950;42.744;23.174;2023-04-26T04:33:52;3.90;;;3.27;;
15699;SDS011;7950;42.744;23.174;2023-04-26T04:36:21;4.70;;;3.40;;
15699;SDS011;7950;42.744;23.174;2023-04-26T04:38:49;4.40;;;3.00;;
15699;SDS011;7950;42.744;23.174;2023-04-26T04:41:19;3.20;;;2.90;;
15699;SDS011;7950;42.744;23.174;2023-04-26T04:43:49;3.43;;;3.13;;
15699;SDS011;7950;42.744;23.174;2023-04-26T04:46:20;4.53;;;3.67;;
15699;SDS011;7950;42.744;23.174;2023-04-26T04:48:50;4.63;;;4.03;;
15699;SDS011;7950;42.744;23.174;2023-04-26T04:51:20;4.10;;;3.50;;
15699;SDS011;7950;42.744;23.174;2023-04-26T04:53:48;3.30;;;3.00;;
15699;SDS011;7950;42.744;23.174;2023-04-26T04:56:17;4.33;;;3.27;;
15699;SDS011;7950;42.744;23.174;2023-04-26T04:58:47;3.43;;;3.13;;
15699;SDS011;7950;42.744;23.174;2023-04-26T05:01:16;4.57;;;3.37;;
15699;SDS011;7950;42.744;23.174;2023-04-26T05:03:46;4.70;;;3.20;;
15699;SDS011;7950;42.744;23.174;2023-04-26T05:06:14;3.27;;;2.77;;
15699;SDS011;7950;42.744;23.174;2023-04-26T05:08:43;3.40;;;3.10;;
15699;SDS011;7950;42.744;23.174;2023-04-26T05:11:11;3.07;;;2.77;;
15699;SDS011;7950;42.744;23.174;2023-04-26T05:13:40;4.17;;;3.27;;
15699;SDS011;7950;42.744;23.174;2023-04-26T05:16:08;4.90;;;3.40;;
15699;SDS011;7950;42.744;23.174;2023-04-26T05:18:37;3.33;;;3.03;;
15699;SDS011;7950;42.744;23.174;2023-04-26T05:21:06;4.13;;;2.90;;
15699;SDS011;7950;42.744;23.174;2023-04-26T05:23:35;3.23;;;2.90;;
15699;SDS011;7950;42.744;23.174;2023-04-26T05:26:04;3.43;;;2.90;;
15699;SDS011;7950;42.744;23.174;2023-04-26T05:31:27;2.97;;;2.77;;
15699;SDS011;7950;42.744;23.174;2023-04-26T05:33:55;3.47;;;3.17;;
15699;SDS011;7950;42.744;23.174;2023-04-26T05:36:25;3.53;;;3.23;;
15699;SDS011;7950;42.744;23.174;2023-04-26T05:38:55;4.00;;;2.77;;
15699;SDS011;7950;42.744;23.174;2023-04-26T05:41:24;3.17;;;2.87;;
15699;SDS011;7950;42.744;23.174;2023-04-26T05:43:52;3.37;;;3.07;;
15699;SDS011;7950;42.744;23.174;2023-04-26T05:46:21;3.50;;;3.20;;
15699;SDS011;7950;42.744;23.174;2023-04-26T05:48:50;3.00;;;2.80;;
15699;SDS011;7950;42.744;23.174;2023-04-26T05:51:19;4.43;;;3.93;;
15699;SDS011;7950;42.744;23.174;2023-04-26T05:53:49;4.30;;;3.90;;
15699;SDS011;7950;42.744;23.174;2023-04-26T05:56:18;4.00;;;3.70;;
15699;SDS011;7950;42.744;23.174;2023-04-26T05:58:46;3.93;;;3.63;;
15699;SDS011;7950;42.744;23.174;2023-04-26T06:01:15;5.23;;;4.07;;
15699;SDS011;7950;42.744;23.174;2023-04-26T06:03:43;4.47;;;4.00;;
15699;SDS011;7950;42.744;23.174;2023-04-26T06:06:13;4.13;;;3.50;;
15699;SDS011;7950;42.744;23.174;2023-04-26T06:08:42;4.97;;;4.33;;
15699;SDS011;7950;42.744;23.174;2023-04-26T06:11:11;4.87;;;4.47;;
15699;SDS011;7950;42.744;23.174;2023-04-26T06:13:40;5.13;;;4.63;;
15699;SDS011;7950;42.744;23.174;2023-04-26T06:16:08;5.40;;;4.90;;
15699;SDS011;7950;42.744;23.174;2023-04-26T06:18:37;5.87;;;4.83;;
15699;SDS011;7950;42.744;23.174;2023-04-26T06:21:05;6.10;;;5.60;;
15699;SDS011;7950;42.744;23.174;2023-04-26T06:23:34;5.40;;;4.90;;
15699;SDS011;7950;42.744;23.174;2023-04-26T06:26:03;5.20;;;4.47;;
15699;SDS011;7950;42.744;23.174;2023-04-26T06:28:33;5.00;;;4.50;;
15699;SDS011;7950;42.744;23.174;2023-04-26T06:31:01;5.23;;;4.73;;
15699;SDS011;7950;42.744;23.174;2023-04-26T06:33:30;5.47;;;4.83;;
15699;SDS011;7950;42.744;23.174;2023-04-26T06:38:53;5.03;;;4.63;;
15699;SDS011;7950;42.744;23.174;2023-04-26T06:41:22;6.33;;;5.73;;
15699;SDS011;7950;42.744;23.174;2023-04-26T06:43:52;6.77;;;6.17;;
15699;SDS011;7950;42.744;23.174;2023-04-26T06:46:21;6.10;;;5.50;;
15699;SDS011;7950;42.744;23.174;2023-04-26T06:48:51;6.30;;;5.70;;
15699;SDS011;7950;42.744;23.174;2023-04-26T06:51:20;7.13;;;5.97;;
15699;SDS011;7950;42.744;23.174;2023-04-26T06:53:49;6.40;;;5.80;;
15699;SDS011;7950;42.744;23.174;2023-04-26T06:56:18;7.53;;;5.87;;
15699;SDS011;7950;42.744;23.174;2023-04-26T06:58:58;7.10;;;6.40;;
15699;SDS011;7950;42.744;23.174;2023-04-26T07:01:28;6.53;;;5.87;;
15699;SDS011;7950;42.744;23.174;2023-04-26T07:03:59;6.47;;;5.80;;
15699;SDS011;7950;42.744;23.174;2023-04-26T07:06:30;6.47;;;5.90;;
15699;SDS011;7950;42.744;23.174;2023-04-26T07:08:58;8.53;;;5.67;;
15699;SDS011;7950;42.744;23.174;2023-04-26T07:11:28;5.73;;;5.20;;
15699;SDS011;7950;42.744;23.174;2023-04-26T07:13:59;6.30;;;5.70;;
15699;SDS011;7950;42.744;23.174;2023-04-26T07:16:27;5.70;;;5.10;;
15699;SDS011;7950;42.744;23.174;2023-04-26T07:18:56;5.93;;;5.10;;
15699;SDS011;7950;42.744;23.174;2023-04-26T07:21:24;5.77;;;4.80;;
15699;SDS011;7950;42.744;23.174;2023-04-26T07:26:47;5.37;;;4.63;;
15699;SDS011;7950;42.744;23.174;2023-04-26T07:29:17;7.53;;;4.87;;
15699;SDS011;7950;42.744;23.174;2023-04-26T07:31:46;5.70;;;5.10;;
15699;SDS011;7950;42.744;23.174;2023-04-26T07:34:15;6.23;;;5.47;;
15699;SDS011;7950;42.744;23.174;2023-04-26T07:36:43;7.00;;;5.80;;
15699;SDS011;7950;42.744;23.174;2023-04-26T07:39:12;6.60;;;5.90;;
15699;SDS011;7950;42.744;23.174;2023-04-26T07:41:42;7.00;;;5.70;;
15699;SDS011;7950;42.744;23.174;2023-04-26T07:44:10;7.10;;;5.20;;
15699;SDS011;7950;42.744;23.174;2023-04-26T07:46:40;6.20;;;5.60;;
15699;SDS011;7950;42.744;23.174;2023-04-26T07:49:08;6.00;;;5.50;;
15699;SDS011;7950;42.744;23.174;2023-04-26T07:51:37;5.53;;;4.93;;
15699;SDS011;7950;42.744;23.174;2023-04-26T07:54:06;11.03;;;5.53;;
15699;SDS011;7950;42.744;23.174;2023-04-26T07:56:35;5.57;;;5.03;;
15699;SDS011;7950;42.744;23.174;2023-04-26T07:59:03;5.60;;;4.77;;
15699;SDS011;7950;42.744;23.174;2023-04-26T08:01:32;4.77;;;4.37;;
15699;SDS011;7950;42.744;23.174;2023-04-26T08:04:02;5.47;;;4.80;;
15699;SDS011;7950;42.744;23.174;2023-04-26T08:06:31;5.40;;;4.53;;
15699;SDS011;7950;42.744;23.174;2023-04-26T08:08:59;4.93;;;4.43;;
15699;SDS011;7950;42.744;23.174;2023-04-26T08:11:29;4.83;;;4.40;;
15699;SDS011;7950;42.744;23.174;2023-04-26T08:13:58;4.43;;;3.87;;
15699;SDS011;7950;42.744;23.174;2023-04-26T08:16:27;4.33;;;3.50;;
15699;SDS011;7950;42.744;23.174;2023-04-26T08:18:55;4.07;;;3.73;;
15699;SDS011;7950;42.744;23.174;2023-04-26T08:21:29;4.23;;;3.80;;
15699;SDS011;7950;42.744;23.174;2023-04-26T08:23:58;3.87;;;3.57;;
15699;SDS011;7950;42.744;23.174;2023-04-26T08:26:26;3.60;;;3.30;;
15699;SDS011;7950;42.744;23.174;2023-04-26T08:28:55;4.27;;;2.70;;
15699;SDS011;7950;42.744;23.174;2023-04-26T08:31:23;3.50;;;3.00;;
15699;SDS011;7950;42.744;23.174;2023-04-26T08:33:53;3.50;;;3.20;;
15699;SDS011;7950;42.744;23.174;2023-04-26T08:36:21;4.00;;;3.70;;
15699;SDS011;7950;42.744;23.174;2023-04-26T08:38:51;3.73;;;3.37;;
15699;SDS011;7950;42.744;23.174;2023-04-26T08:41:22;3.60;;;3.30;;
15699;SDS011;7950;42.744;23.174;2023-04-26T08:43:52;3.97;;;3.40;;
15699;SDS011;7950;42.744;23.174;2023-04-26T08:46:23;3.70;;;3.20;;
15699;SDS011;7950;42.744;23.174;2023-04-26T08:48:57;6.90;;;3.57;;
15699;SDS011;7950;42.744;23.174;2023-04-26T08:51:40;3.00;;;2.60;;
15699;SDS011;7950;42.744;23.174;2023-04-26T08:54:11;5.10;;;2.70;;
15699;SDS011;7950;42.744;23.174;2023-04-26T08:56:43;3.63;;;3.10;;
15699;SDS011;7950;42.744;23.174;2023-04-26T08:59:13;3.33;;;3.03;;
15699;SDS011;7950;42.744;23.174;2023-04-26T09:01:42;3.97;;;3.20;;
15699;SDS011;7950;42.744;23.174;2023-04-26T09:04:11;3.33;;;3.03;;
15699;SDS011;7950;42.744;23.174;2023-04-26T09:06:40;3.80;;;2.73;;
15699;SDS011;7950;42.744;23.174;2023-04-26T09:09:11;3.33;;;2.80;;
15699;SDS011;7950;42.744;23.174;2023-04-26T09:11:54;2.80;;;2.60;;
15699;SDS011;7950;42.744;23.174;2023-04-26T09:14:26;2.73;;;2.53;;
15699;SDS011;7950;42.744;23.174;2023-04-26T09:16:54;3.00;;;2.80;;
15699;SDS011;7950;42.744;23.174;2023-04-26T09:19:33;3.00;;;2.63;;
15699;SDS011;7950;42.744;23.174;2023-04-26T09:22:03;2.70;;;2.50;;
15699;SDS011;7950;42.744;23.174;2023-04-26T09:24:46;3.10;;;2.80;;
15699;SDS011;7950;42.744;23.174;2023-04-26T09:27:17;2.87;;;2.67;;
15699;SDS011;7950;42.744;23.174;2023-04-26T09:29:56;2.70;;;2.50;;
15699;SDS011;7950;42.744;23.174;2023-04-26T09:32:26;3.00;;;2.20;;
15699;SDS011;7950;42.744;23.174;2023-04-26T09:35:17;2.93;;;2.63;;
15699;SDS011;7950;42.744;23.174;2023-04-26T09:37:58;2.40;;;2.20;;
15699;SDS011;7950;42.744;23.174;2023-04-26T09:40:39;2.47;;;2.27;;
15699;SDS011;7950;42.744;23.174;2023-04-26T09:43:10;2.87;;;2.50;;
15699;SDS011;7950;42.744;23.174;2023-04-26T09:45:45;2.40;;;2.20;;
15699;SDS011;7950;42.744;23.174;2023-04-26T09:48:17;2.00;;;1.90;;
15699;SDS011;7950;42.744;23.174;2023-04-26T09:50:48;2.40;;;2.10;;
15699;SDS011;7950;42.744;23.174;2023-04-26T09:53:26;3.40;;;2.23;;
15699;SDS011;7950;42.744;23.174;2023-04-26T09:56:05;1.93;;;1.83;;
15699;SDS011;7950;42.744;23.174;2023-04-26T09:58:35;2.60;;;2.03;;
15699;SDS011;7950;42.744;23.174;2023-04-26T10:01:06;2.10;;;1.90;;
15699;SDS011;7950;42.744;23.174;2023-04-26T10:03:35;2.30;;;2.10;;
15699;SDS011;7950;42.744;23.174;2023-04-26T10:08:54;2.30;;;2.10;;
15699;SDS011;7950;42.744;23.174;2023-04-26T10:11:24;2.27;;;2.00;;
15699;SDS011;7950;42.744;23.174;2023-04-26T10:13:54;2.33;;;2.00;;
15699;SDS011;7950;42.744;23.174;2023-04-26T10:16:22;2.50;;;1.80;;
15699;SDS011;7950;42.744;23.174;2023-04-26T10:18:51;1.90;;;1.80;;
15699;SDS011;7950;42.744;23.174;2023-04-26T10:21:31;2.00;;;1.80;;
15699;SDS011;7950;42.744;23.174;2023-04-26T10:24:04;1.97;;;1.83;;
15699;SDS011;7950;42.744;23.174;2023-04-26T10:26:48;4.63;;;1.90;;
15699;SDS011;7950;42.744;23.174;2023-04-26T10:29:18;2.50;;;1.90;;
15699;SDS011;7950;42.744;23.174;2023-04-26T10:34:42;2.20;;;1.63;;
15699;SDS011;7950;42.744;23.174;2023-04-26T10:37:12;2.10;;;1.90;;
15699;SDS011;7950;42.744;23.174;2023-04-26T10:39:42;2.43;;;2.00;;
15699;SDS011;7950;42.744;23.174;2023-04-26T10:42:17;8.00;;;2.70;;
15699;SDS011;7950;42.744;23.174;2023-04-26T10:48:14;2.53;;;2.03;;
15699;SDS011;7950;42.744;23.174;2023-04-26T10:56:49;2.87;;;2.57;;
15699;SDS011;7950;42.744;23.174;2023-04-26T10:59:20;2.37;;;1.93;;
15699;SDS011;7950;42.744;23.174;2023-04-26T11:02:09;2.90;;;2.10;;
15699;SDS011;7950;42.744;23.174;2023-04-26T11:04:50;3.30;;;2.30;;
15699;SDS011;7950;42.744;23.174;2023-04-26T11:07:34;2.23;;;2.13;;
15699;SDS011;7950;42.744;23.174;2023-04-26T11:10:07;2.60;;;2.40;;
15699;SDS011;7950;42.744;23.174;2023-04-26T11:12:57;4.03;;;2.10;;
15699;SDS011;7950;42.744;23.174;2023-04-26T11:15:29;2.00;;;1.80;;
15699;SDS011;7950;42.744;23.174;2023-04-26T11:18:00;3.60;;;2.07;;
15699;SDS011;7950;42.744;23.174;2023-04-26T11:20:30;2.40;;;2.20;;
15699;SDS011;7950;42.744;23.174;2023-04-26T11:25:56;2.50;;;2.30;;
15699;SDS011;7950;42.744;23.174;2023-04-26T11:28:25;3.00;;;2.40;;
15699;SDS011;7950;42.744;23.174;2023-04-26T11:30:55;1.80;;;1.70;;
15699;SDS011;7950;42.744;23.174;2023-04-26T11:33:24;2.30;;;2.10;;
15699;SDS011;7950;42.744;23.174;2023-04-26T11:35:53;2.63;;;2.37;;
15699;SDS011;7950;42.744;23.174;2023-04-26T11:38:24;2.47;;;2.17;;
15699;SDS011;7950;42.744;23.174;2023-04-26T11:40:55;2.50;;;2.30;;
15699;SDS011;7950;42.744;23.174;2023-04-26T11:43:30;2.73;;;2.33;;
15699;SDS011;7950;42.744;23.174;2023-04-26T11:46:04;2.80;;;2.30;;
15699;SDS011;7950;42.744;23.174;2023-04-26T11:48:36;2.23;;;2.03;;
15699;SDS011;7950;42.744;23.174;2023-04-26T11:51:05;4.00;;;1.83;;
15699;SDS011;7950;42.744;23.174;2023-04-26T11:53:37;2.40;;;2.20;;
15699;SDS011;7950;42.744;23.174;2023-04-26T11:56:13;2.33;;;2.13;;
15699;SDS011;7950;42.744;23.174;2023-04-26T11:58:44;3.20;;;2.10;;
15699;SDS011;7950;42.744;23.174;2023-04-26T12:01:20;2.10;;;1.90;;
15699;SDS011;7950;42.744;23.174;2023-04-26T12:03:50;2.20;;;2.00;;
15699;SDS011;7950;42.744;23.174;2023-04-26T12:06:24;2.40;;;1.80;;
15699;SDS011;7950;42.744;23.174;2023-04-26T12:09:00;3.07;;;1.97;;
15699;SDS011;7950;42.744;23.174;2023-04-26T12:11:31;2.20;;;2.00;;
15699;SDS011;7950;42.744;23.174;2023-04-26T12:13:59;2.70;;;1.80;;
15699;SDS011;7950;42.744;23.174;2023-04-26T12:16:30;2.00;;;1.80;;
15699;SDS011;7950;42.744;23.174;2023-04-26T12:18:59;3.03;;;2.00;;
15699;SDS011;7950;42.744;23.174;2023-04-26T12:21:38;3.30;;;2.23;;
15699;SDS011;7950;42.744;23.174;2023-04-26T12:24:18;2.70;;;2.23;;
15699;SDS011;7950;42.744;23.174;2023-04-26T12:26:51;2.90;;;2.33;;
15699;SDS011;7950;42.744;23.174;2023-04-26T12:29:19;2.53;;;2.30;;
15699;SDS011;7950;42.744;23.174;2023-04-26T12:31:49;2.73;;;2.23;;
15699;SDS011;7950;42.744;23.174;2023-04-26T12:34:18;2.30;;;2.10;;
15699;SDS011;7950;42.744;23.174;2023-04-26T12:36:47;2.83;;;2.23;;
15699;SDS011;7950;42.744;23.174;2023-04-26T12:39:15;2.30;;;2.10;;
15699;SDS011;7950;42.744;23.174;2023-04-26T12:41:44;2.47;;;2.27;;
15699;SDS011;7950;42.744;23.174;2023-04-26T12:44:12;3.00;;;2.70;;
15699;SDS011;7950;42.744;23.174;2023-04-26T12:46:41;3.40;;;2.40;;
15699;SDS011;7950;42.744;23.174;2023-04-26T12:49:11;5.70;;;2.43;;
15699;SDS011;7950;42.744;23.174;2023-04-26T12:51:40;4.23;;;2.50;;
15699;SDS011;7950;42.744;23.174;2023-04-26T12:54:08;3.23;;;2.40;;
15699;SDS011;7950;42.744;23.174;2023-04-26T12:56:37;4.23;;;2.60;;
15699;SDS011;7950;42.744;23.174;2023-04-26T12:59:09;4.70;;;2.83;;
15699;SDS011;7950;42.744;23.174;2023-04-26T13:01:38;4.10;;;2.80;;
15699;SDS011;7950;42.744;23.174;2023-04-26T13:04:06;3.23;;;2.77;;
15699;SDS011;7950;42.744;23.174;2023-04-26T13:06:37;4.43;;;3.10;;
15699;SDS011;7950;42.744;23.174;2023-04-26T13:09:06;3.80;;;2.63;;
15699;SDS011;7950;42.744;23.174;2023-04-26T13:11:35;2.43;;;2.23;;
15699;SDS011;7950;42.744;23.174;2023-04-26T13:14:03;3.17;;;2.60;;
15699;SDS011;7950;42.744;23.174;2023-04-26T13:16:37;4.30;;;2.50;;
15699;SDS011;7950;42.744;23.174;2023-04-26T13:19:09;3.63;;;2.93;;
15699;SDS011;7950;42.744;23.174;2023-04-26T13:21:39;3.87;;;2.97;;
15699;SDS011;7950;42.744;23.174;2023-04-26T13:24:07;4.97;;;3.23;;
15699;SDS011;7950;42.744;23.174;2023-04-26T13:26:36;3.60;;;3.30;;
15699;SDS011;7950;42.744;23.174;2023-04-26T13:29:04;3.77;;;3.40;;
15699;SDS011;7950;42.744;23.174;2023-04-26T13:31:33;3.17;;;2.90;;
15699;SDS011;7950;42.744;23.174;2023-04-26T13:34:02;3.73;;;3.07;;
15699;SDS011;7950;42.744;23.174;2023-04-26T13:36:32;3.60;;;3.30;;
15699;SDS011;7950;42.744;23.174;2023-04-26T13:39:02;3.63;;;3.27;;
15699;SDS011;7950;42.744;23.174;2023-04-26T13:41:33;3.20;;;3.00;;
15699;SDS011;7950;42.744;23.174;2023-04-26T13:44:02;3.43;;;3.13;;
15699;SDS011;7950;42.744;23.174;2023-04-26T13:46:31;3.53;;;3.23;;
15699;SDS011;7950;42.744;23.174;2023-04-26T13:49:17;3.57;;;3.27;;
15699;SDS011;7950;42.744;23.174;2023-04-26T13:51:47;3.53;;;3.27;;
15699;SDS011;7950;42.744;23.174;2023-04-26T13:54:17;3.77;;;3.47;;
15699;SDS011;7950;42.744;23.174;2023-04-26T13:56:48;11.17;;;3.83;;
15699;SDS011;7950;42.744;23.174;2023-04-26T13:59:17;5.33;;;4.07;;
15699;SDS011;7950;42.744;23.174;2023-04-26T14:01:45;3.57;;;3.27;;
15699;SDS011;7950;42.744;23.174;2023-04-26T14:04:14;3.73;;;3.37;;
15699;SDS011;7950;42.744;23.174;2023-04-26T14:06:43;4.13;;;3.37;;
15699;SDS011;7950;42.744;23.174;2023-04-26T14:09:11;4.13;;;3.53;;
15699;SDS011;7950;42.744;23.174;2023-04-26T14:11:42;3.73;;;3.43;;
15699;SDS011;7950;42.744;23.174;2023-04-26T14:14:22;4.13;;;3.73;;
15699;SDS011;7950;42.744;23.174;2023-04-26T14:16:51;5.53;;;3.67;;
15699;SDS011;7950;42.744;23.174;2023-04-26T14:19:19;4.60;;;4.20;;
15699;SDS011;7950;42.744;23.174;2023-04-26T14:21:48;4.60;;;3.93;;
15699;SDS011;7950;42.744;23.174;2023-04-26T14:24:16;5.00;;;4.60;;
15699;SDS011;7950;42.744;23.174;2023-04-26T14:26:46;4.60;;;4.30;;
15699;SDS011;7950;42.744;23.174;2023-04-26T14:29:15;4.60;;;4.20;;
15699;SDS011;7950;42.744;23.174;2023-04-26T14:31:44;5.03;;;4.37;;
15699;SDS011;7950;42.744;23.174;2023-04-26T14:34:12;4.63;;;4.20;;
15699;SDS011;7950;42.744;23.174;2023-04-26T14:36:41;4.10;;;3.80;;
15699;SDS011;7950;42.744;23.174;2023-04-26T14:39:10;4.37;;;3.70;;
15699;SDS011;7950;42.744;23.174;2023-04-26T14:41:38;4.63;;;4.23;;
15699;SDS011;7950;42.744;23.174;2023-04-26T14:44:09;4.60;;;4.10;;
15699;SDS011;7950;42.744;23.174;2023-04-26T14:46:37;4.80;;;4.37;;
15699;SDS011;7950;42.744;23.174;2023-04-26T14:49:07;4.33;;;3.93;;
15699;SDS011;7950;42.744;23.174;2023-04-26T14:51:35;4.93;;;4.37;;
15699;SDS011;7950;42.744;23.174;2023-04-26T14:54:04;5.20;;;4.73;;
15699;SDS011;7950;42.744;23.174;2023-04-26T14:56:32;4.83;;;4.50;;
15699;SDS011;7950;42.744;23.174;2023-04-26T14:59:02;4.67;;;4.27;;
15699;SDS011;7950;42.744;23.174;2023-04-26T15:01:32;4.70;;;4.30;;
15699;SDS011;7950;42.744;23.174;2023-04-26T15:04:00;4.93;;;4.53;;
15699;SDS011;7950;42.744;23.174;2023-04-26T15:06:29;5.47;;;5.07;;
15699;SDS011;7950;42.744;23.174;2023-04-26T15:08:59;5.00;;;4.60;;
15699;SDS011;7950;42.744;23.174;2023-04-26T15:14:37;5.40;;;4.90;;
15699;SDS011;7950;42.744;23.174;2023-04-26T15:17:07;6.17;;;5.07;;
15699;SDS011;7950;42.744;23.174;2023-04-26T15:19:36;5.50;;;5.10;;
15699;SDS011;7950;42.744;23.174;2023-04-26T15:24:54;8.57;;;5.70;;
15699;SDS011;7950;42.744;23.174;2023-04-26T15:27:23;5.70;;;5.10;;
15699;SDS011;7950;42.744;23.174;2023-04-26T15:29:52;5.37;;;4.67;;
15699;SDS011;7950;42.744;23.174;2023-04-26T15:32:23;5.60;;;5.10;;
15699;SDS011;7950;42.744;23.174;2023-04-26T15:34:52;7.40;;;5.83;;
15699;SDS011;7950;42.744;23.174;2023-04-26T15:37:20;6.10;;;5.60;;
15699;SDS011;7950;42.744;23.174;2023-04-26T15:39:49;6.20;;;5.60;;
15699;SDS011;7950;42.744;23.174;2023-04-26T15:42:17;5.63;;;5.13;;
15699;SDS011;7950;42.744;23.174;2023-04-26T15:44:47;6.03;;;5.43;;
15699;SDS011;7950;42.744;23.174;2023-04-26T15:50:11;7.07;;;6.40;;
15699;SDS011;7950;42.744;23.174;2023-04-26T15:52:40;8.20;;;5.93;;